createdAt,value
2022-12-05T00:01:46.004Z,17.77
2022-12-05T00:04:15.350Z,19.67
2022-12-05T00:06:45.353Z,21.20
2022-12-05T00:09:14.275Z,19.93
2022-12-05T00:11:43.878Z,16.23
2022-12-05T00:14:13.021Z,17.30
2022-12-05T00:16:42.318Z,19.77
2022-12-05T00:19:11.981Z,18.17
2022-12-05T00:21:39.693Z,19.53
2022-12-05T00:24:13.558Z,17.10
2022-12-05T00:26:41.517Z,18.33
2022-12-05T00:29:09.419Z,19.80
2022-12-05T00:31:52.102Z,18.27
2022-12-05T00:34:20.400Z,17.50
2022-12-05T00:36:48.320Z,19.20
2022-12-05T00:39:17.540Z,16.67
2022-12-05T00:41:45.832Z,15.87
2022-12-05T00:44:16.843Z,18.47
2022-12-05T00:46:51.309Z,17.20
2022-12-05T00:49:19.252Z,17.30
2022-12-05T00:51:47.498Z,17.77
2022-12-05T00:54:18.509Z,16.73
2022-12-05T00:56:47.127Z,17.40
2022-12-05T00:59:19.965Z,16.23
2022-12-05T01:01:51.242Z,15.13
2022-12-05T01:04:21.962Z,16.37
2022-12-05T01:06:50.415Z,15.93
2022-12-05T01:09:21.353Z,15.70
2022-12-05T01:11:56.607Z,18.07
2022-12-05T01:14:26.865Z,13.73
2022-12-05T01:16:56.508Z,19.83
2022-12-05T01:19:26.262Z,15.97
2022-12-05T01:21:54.486Z,17.10
2022-12-05T01:24:25.082Z,20.63
2022-12-05T01:26:53.780Z,21.87
2022-12-05T01:29:23.242Z,24.70
2022-12-05T01:31:51.032Z,22.23
2022-12-05T01:34:19.830Z,21.23
2022-12-05T01:36:48.056Z,24.23
2022-12-05T01:39:16.661Z,23.27
2022-12-05T01:41:48.801Z,21.23
2022-12-05T01:44:54.535Z,25.10
2022-12-05T01:47:23.187Z,19.93
2022-12-05T01:49:51.092Z,38.77
2022-12-05T01:52:21.360Z,17.93
2022-12-05T01:54:50.352Z,19.67
2022-12-05T01:57:19.859Z,68.50
2022-12-05T01:59:52.462Z,70.03
2022-12-05T02:02:21.086Z,24.17
2022-12-05T02:04:52.675Z,22.70
2022-12-05T02:07:20.972Z,20.30
2022-12-05T02:09:50.962Z,22.03
2022-12-05T02:12:20.331Z,21.37
2022-12-05T02:14:55.977Z,18.73
2022-12-05T02:17:30.849Z,18.30
2022-12-05T02:20:10.462Z,17.40
2022-12-05T02:22:57.990Z,16.40
2022-12-05T02:25:50.874Z,15.27
2022-12-05T02:28:34.997Z,15.80
2022-12-05T02:31:09.333Z,14.67
2022-12-05T02:33:40.330Z,12.77
2022-12-05T02:36:11.605Z,12.30
2022-12-05T02:38:41.894Z,11.70
2022-12-05T02:41:16.131Z,11.40
2022-12-05T02:43:48.120Z,10.10
2022-12-05T02:46:20.322Z,11.30
2022-12-05T02:48:49.077Z,9.90
2022-12-05T02:51:20.809Z,7.90
2022-12-05T02:53:50.685Z,8.80
2022-12-05T02:56:18.753Z,7.97
2022-12-05T02:58:51.841Z,8.80
2022-12-05T03:01:21.486Z,8.43
2022-12-05T03:03:49.298Z,8.47
2022-12-05T03:06:20.379Z,7.83
2022-12-05T03:08:50.165Z,8.80
2022-12-05T03:11:17.852Z,8.43
2022-12-05T03:13:47.398Z,8.37
2022-12-05T03:16:19.157Z,9.23
2022-12-05T03:18:50.032Z,9.20
2022-12-05T03:21:23.632Z,7.90
2022-12-05T03:23:52.757Z,8.90
2022-12-05T03:26:31.392Z,7.87
2022-12-05T03:29:04.265Z,7.80
2022-12-05T03:31:36.807Z,7.77
2022-12-05T03:34:09.179Z,8.87
2022-12-05T03:36:40.726Z,8.80
2022-12-05T03:39:11.823Z,8.30
2022-12-05T03:41:42.394Z,8.87
2022-12-05T03:44:14.572Z,7.97
2022-12-05T03:46:44.796Z,7.73
2022-12-05T03:49:18.287Z,8.83
2022-12-05T03:51:50.488Z,8.20
2022-12-05T03:54:21.465Z,12.17
2022-12-05T03:56:52.484Z,10.43
2022-12-05T03:59:23.908Z,13.10
2022-12-05T04:01:52.904Z,11.33
2022-12-05T04:04:23.717Z,11.67
2022-12-05T04:06:53.262Z,13.27
2022-12-05T04:09:24.045Z,8.90
2022-12-05T04:11:56.354Z,10.37
2022-12-05T04:14:28.128Z,9.80
2022-12-05T04:17:04.203Z,10.20
2022-12-05T04:19:51.757Z,10.20
2022-12-05T04:22:20.073Z,12.73
2022-12-05T04:25:06.026Z,12.07
2022-12-05T04:27:40.280Z,11.03
2022-12-05T04:30:11.356Z,9.70
2022-12-05T04:32:43.043Z,11.03
2022-12-05T04:35:16.293Z,11.30
2022-12-05T04:37:46.261Z,11.20
2022-12-05T04:40:17.440Z,9.53
2022-12-05T04:42:46.015Z,10.27
2022-12-05T04:45:16.751Z,11.50
2022-12-05T04:47:48.205Z,12.40
2022-12-05T04:50:17.590Z,13.03
2022-12-05T04:52:47.937Z,15.20
2022-12-05T04:55:20.139Z,16.40
2022-12-05T04:57:53.052Z,16.33
2022-12-05T05:00:20.866Z,20.30
2022-12-05T05:02:53.168Z,21.40
2022-12-05T05:05:23.680Z,21.10
2022-12-05T05:07:53.207Z,20.27
2022-12-05T05:10:23.178Z,24.63
2022-12-05T05:12:50.756Z,21.27
2022-12-05T05:15:18.397Z,23.63
2022-12-05T05:17:46.008Z,28.87
2022-12-05T05:20:25.568Z,25.87
2022-12-05T05:22:55.629Z,23.20
2022-12-05T05:25:23.656Z,22.63
2022-12-05T05:27:52.302Z,23.03
2022-12-05T05:30:20.251Z,24.73
2022-12-05T05:32:48.264Z,26.03
2022-12-05T05:35:16.527Z,26.83
2022-12-05T05:37:44.183Z,27.13
2022-12-05T05:40:14.568Z,24.93
2022-12-05T05:42:46.301Z,27.10
2022-12-05T05:45:15.256Z,25.47
2022-12-05T05:47:43.566Z,28.20
2022-12-05T05:50:16.270Z,26.37
2022-12-05T05:52:47.458Z,27.37
2022-12-05T05:55:16.507Z,24.43
2022-12-05T05:57:44.249Z,23.37
2022-12-05T06:00:13.139Z,23.53
2022-12-05T06:02:40.848Z,25.93
2022-12-05T06:05:09.411Z,29.03
2022-12-05T06:07:37.125Z,24.13
2022-12-05T06:10:05.799Z,25.57
2022-12-05T06:12:35.094Z,25.93
2022-12-05T06:15:02.776Z,25.00
2022-12-05T06:17:31.198Z,24.30
2022-12-05T06:19:58.957Z,26.77
2022-12-05T06:22:26.857Z,27.57
2022-12-05T06:24:54.606Z,29.77
2022-12-05T06:27:22.359Z,25.23
2022-12-05T06:29:51.434Z,31.50
2022-12-05T06:32:19.060Z,29.37
2022-12-05T06:34:46.714Z,28.87
2022-12-05T06:37:14.360Z,23.40
2022-12-05T06:39:42.480Z,23.80
2022-12-05T06:42:10.352Z,26.07
2022-12-05T06:44:38.086Z,25.37
2022-12-05T06:47:07.035Z,24.47
2022-12-05T06:49:37.891Z,20.97
2022-12-05T06:52:06.233Z,24.43
2022-12-05T06:54:33.988Z,25.40
2022-12-05T06:57:03.710Z,24.43
2022-12-05T06:59:31.351Z,22.43
2022-12-05T07:01:58.086Z,23.77
2022-12-05T07:04:27.085Z,23.60
2022-12-05T07:06:55.870Z,26.00
2022-12-05T07:09:45.780Z,27.57
2022-12-05T07:12:14.111Z,23.53
2022-12-05T07:14:50.010Z,27.17
2022-12-05T07:17:18.363Z,27.37
2022-12-05T07:19:48.414Z,24.33
2022-12-05T07:22:16.418Z,24.40
2022-12-05T07:24:44.561Z,25.13
2022-12-05T07:27:12.433Z,22.97
2022-12-05T07:29:40.163Z,24.80
2022-12-05T07:32:08.300Z,23.23
2022-12-05T07:34:36.128Z,20.67
2022-12-05T07:37:05.407Z,23.17
2022-12-05T07:39:33.182Z,23.07
2022-12-05T07:42:00.979Z,23.03
2022-12-05T07:44:28.613Z,23.30
2022-12-05T07:46:56.277Z,21.60
2022-12-05T07:49:23.887Z,21.97
2022-12-05T07:51:51.679Z,23.90
2022-12-05T07:54:20.667Z,25.07
2022-12-05T07:56:48.344Z,25.03
2022-12-05T07:59:16.057Z,24.93
2022-12-05T08:01:43.664Z,26.57
2022-12-05T08:04:15.263Z,26.93
2022-12-05T08:06:43.330Z,28.17
2022-12-05T08:09:11.021Z,29.30
2022-12-05T08:11:40.066Z,26.30
2022-12-05T08:14:08.043Z,26.37
2022-12-05T08:16:35.862Z,26.30
2022-12-05T08:19:05.854Z,24.87
2022-12-05T08:21:34.565Z,24.80
2022-12-05T08:24:03.878Z,26.20
2022-12-05T08:26:32.772Z,32.20
2022-12-05T08:29:03.482Z,28.43
2022-12-05T08:31:33.305Z,25.20
2022-12-05T08:34:01.727Z,27.50
2022-12-05T08:36:31.093Z,24.93
2022-12-05T08:38:59.817Z,22.43
2022-12-05T08:41:28.987Z,23.63
2022-12-05T08:43:56.851Z,24.83
2022-12-05T08:46:26.164Z,19.77
2022-12-05T08:48:53.943Z,23.73
2022-12-05T08:51:21.671Z,22.37
2022-12-05T08:53:49.475Z,25.10
2022-12-05T08:56:18.893Z,21.83
2022-12-05T08:58:48.597Z,24.27
2022-12-05T09:01:18.110Z,19.73
2022-12-05T09:03:48.365Z,19.97
2022-12-05T09:06:18.121Z,21.90
2022-12-05T09:08:46.397Z,19.80
2022-12-05T09:11:16.031Z,16.83
2022-12-05T09:13:44.020Z,18.77
2022-12-05T09:16:13.686Z,18.83
2022-12-05T09:18:41.768Z,17.07
2022-12-05T09:21:12.457Z,17.57
2022-12-05T09:23:40.169Z,17.17
2022-12-05T09:26:11.755Z,18.30
2022-12-05T09:28:39.562Z,16.97
2022-12-05T09:31:08.671Z,20.73
2022-12-05T09:33:38.168Z,18.57
2022-12-05T09:36:06.779Z,18.83
2022-12-05T09:38:35.836Z,17.23
2022-12-05T09:41:09.290Z,16.80
2022-12-05T09:43:41.303Z,17.20
2022-12-05T09:46:14.747Z,21.07
2022-12-05T09:48:44.899Z,16.00
2022-12-05T09:51:13.673Z,18.33
2022-12-05T09:53:44.467Z,18.30
2022-12-05T09:56:15.406Z,17.93
2022-12-05T09:58:45.344Z,15.90
2022-12-05T10:01:24.550Z,14.37
2022-12-05T10:04:05.294Z,15.27
2022-12-05T10:06:36.099Z,17.97
2022-12-05T10:09:19.933Z,13.27
2022-12-05T10:11:51.533Z,15.50
2022-12-05T10:14:24.575Z,16.80
2022-12-05T10:16:55.124Z,14.83
2022-12-05T10:19:26.618Z,16.67
2022-12-05T10:21:59.133Z,14.67
2022-12-05T10:24:31.658Z,14.53
2022-12-05T10:27:01.790Z,16.17
2022-12-05T10:29:31.505Z,16.53
2022-12-05T10:32:06.719Z,13.23
2022-12-05T10:34:36.589Z,15.77
2022-12-05T10:37:11.204Z,15.50
2022-12-05T10:39:40.480Z,13.17
2022-12-05T10:42:11.663Z,13.00
2022-12-05T10:44:39.353Z,9.67
2022-12-05T10:47:07.361Z,10.40
2022-12-05T10:49:35.542Z,10.77
2022-12-05T10:52:03.287Z,10.27
2022-12-05T10:54:32.473Z,10.63
2022-12-05T10:57:01.871Z,10.30
2022-12-05T10:59:47.037Z,9.23
2022-12-05T11:02:22.661Z,9.50
2022-12-05T11:04:50.478Z,9.47
2022-12-05T11:07:28.175Z,9.33
2022-12-05T11:09:55.837Z,10.50
2022-12-05T11:12:27.012Z,14.00
2022-12-05T11:14:57.163Z,10.97
2022-12-05T11:17:27.670Z,13.13
2022-12-05T11:19:55.267Z,12.03
2022-12-05T11:22:32.454Z,10.40
2022-12-05T11:25:00.544Z,14.73
2022-12-05T11:27:31.853Z,12.50
2022-12-05T11:30:02.170Z,13.70
2022-12-05T11:32:32.762Z,11.50
2022-12-05T11:35:14.477Z,10.80
2022-12-05T11:37:46.198Z,11.37
2022-12-05T11:40:16.314Z,10.13
2022-12-05T11:42:57.064Z,10.43
2022-12-05T11:45:36.232Z,10.27
2022-12-05T11:48:17.946Z,9.90
2022-12-05T11:50:53.802Z,11.53
2022-12-05T11:53:51.350Z,12.07
2022-12-05T11:56:27.710Z,12.87
2022-12-05T11:59:10.657Z,18.50
2022-12-05T12:01:47.538Z,15.83
2022-12-05T12:04:29.404Z,13.10
2022-12-05T12:07:08.538Z,12.43
2022-12-05T12:09:43.937Z,12.70
2022-12-05T12:12:22.045Z,13.63
2022-12-05T12:14:58.784Z,11.13
2022-12-05T12:17:32.540Z,12.23
2022-12-05T12:20:11.602Z,10.87
2022-12-05T12:22:49.319Z,11.97
2022-12-05T12:25:24.804Z,12.07
2022-12-05T12:28:04.523Z,10.33
2022-12-05T12:30:42.026Z,10.43
2022-12-05T12:33:16.250Z,11.40
2022-12-05T12:35:47.490Z,9.43
2022-12-05T12:38:33.587Z,11.20
2022-12-05T12:41:06.574Z,10.73
2022-12-05T12:43:54.685Z,10.77
2022-12-05T12:46:41.935Z,10.87
2022-12-05T12:49:20.513Z,10.37
2022-12-05T12:51:53.775Z,9.70
2022-12-05T12:57:35.396Z,10.23
2022-12-05T13:00:10.850Z,9.23
2022-12-05T13:02:45.153Z,8.17
2022-12-05T13:05:22.612Z,9.60
2022-12-05T13:07:53.103Z,9.40
2022-12-05T13:10:26.490Z,9.30
2022-12-05T13:12:55.487Z,10.53
2022-12-05T13:15:27.700Z,9.40
2022-12-05T13:17:56.839Z,10.20
2022-12-05T13:20:26.593Z,9.67
2022-12-05T13:22:55.065Z,8.33
2022-12-05T13:25:29.055Z,10.47
2022-12-05T13:27:58.695Z,11.27
2022-12-05T13:30:28.114Z,10.20
2022-12-05T13:32:59.095Z,8.83
2022-12-05T13:35:49.634Z,10.23
2022-12-05T13:38:39.559Z,9.37
2022-12-05T13:41:25.024Z,11.67
2022-12-05T13:44:05.867Z,10.47
2022-12-05T13:46:36.139Z,12.00
2022-12-05T13:49:11.672Z,12.50
2022-12-05T13:51:44.422Z,11.70
2022-12-05T13:54:14.708Z,11.17
2022-12-05T13:56:51.630Z,10.30
2022-12-05T13:59:56.965Z,9.93
2022-12-05T14:02:51.245Z,9.43
2022-12-05T14:05:49.230Z,9.80
2022-12-05T14:08:46.588Z,12.00
2022-12-05T14:11:14.321Z,12.00
2022-12-05T14:13:44.828Z,12.80
2022-12-05T14:16:49.992Z,14.17
2022-12-05T14:19:59.342Z,15.90
2022-12-05T14:23:09.130Z,10.90
2022-12-05T14:26:02.114Z,12.03
2022-12-05T14:28:49.172Z,15.27
2022-12-05T14:31:38.594Z,24.13
2022-12-05T14:34:20.756Z,24.43
2022-12-05T14:37:04.213Z,16.37
2022-12-05T14:39:37.926Z,17.33
2022-12-05T14:42:21.602Z,13.10
2022-12-05T14:44:50.409Z,11.00
2022-12-05T14:47:20.671Z,11.80
2022-12-05T14:49:57.892Z,14.33
2022-12-05T14:52:27.329Z,14.20
2022-12-05T14:54:58.440Z,13.47
2022-12-05T14:57:28.072Z,15.43
2022-12-05T14:59:57.868Z,14.67
2022-12-05T15:02:27.988Z,12.70
2022-12-05T15:04:59.796Z,15.30
2022-12-05T15:07:33.116Z,18.37
2022-12-05T15:10:02.890Z,15.67
2022-12-05T15:12:36.903Z,15.70
2022-12-05T15:15:09.375Z,15.30
2022-12-05T15:17:45.954Z,15.33
2022-12-05T15:20:19.223Z,13.90
2022-12-05T15:22:46.925Z,16.00
2022-12-05T15:25:29.254Z,13.60
2022-12-05T15:28:01.295Z,13.40
2022-12-05T15:30:30.781Z,13.40
2022-12-05T15:32:59.860Z,15.67
2022-12-05T15:35:30.105Z,14.00
2022-12-05T15:38:00.608Z,14.00
2022-12-05T15:40:37.242Z,16.93
2022-12-05T15:46:27.778Z,13.70
2022-12-05T15:48:57.016Z,13.10
2022-12-05T15:51:29.955Z,12.43
2022-12-05T15:54:01.318Z,11.70
2022-12-05T15:56:31.463Z,11.30
2022-12-05T15:59:05.801Z,11.43
2022-12-05T16:01:40.837Z,13.10
2022-12-05T16:04:15.960Z,12.00
2022-12-05T16:06:45.812Z,12.27
2022-12-05T16:09:16.349Z,11.33
2022-12-05T16:11:52.711Z,11.63
2022-12-05T16:14:50.902Z,10.00
2022-12-05T16:17:14.233Z,8.87
2022-12-05T16:19:42.123Z,8.23
2022-12-05T16:22:15.899Z,8.80
2022-12-05T16:24:44.655Z,8.80
2022-12-05T16:27:17.831Z,9.17
2022-12-05T16:29:45.880Z,8.30
2022-12-05T16:32:21.552Z,9.10
2022-12-05T16:34:49.421Z,9.30
2022-12-05T16:37:23.809Z,7.77
2022-12-05T16:39:51.470Z,8.13
2022-12-05T16:42:29.559Z,7.73
2022-12-05T16:45:02.106Z,6.80
2022-12-05T16:47:57.107Z,7.70
2022-12-05T16:50:32.267Z,7.00
2022-12-05T16:53:04.467Z,7.40
2022-12-05T16:55:37.228Z,6.87
2022-12-05T16:58:05.177Z,8.37
2022-12-05T17:00:33.206Z,9.50
2022-12-05T17:03:32.262Z,6.63
2022-12-05T17:05:50.626Z,6.83
2022-12-05T17:08:18.336Z,6.57
2022-12-05T17:10:46.049Z,9.93
2022-12-05T17:13:15.590Z,6.33
2022-12-05T17:15:43.509Z,9.10
2022-12-05T17:18:14.331Z,9.10
2022-12-05T17:20:43.411Z,6.90
2022-12-05T17:23:15.234Z,7.13
2022-12-05T17:25:44.780Z,7.10
2022-12-05T17:28:12.632Z,8.57
2022-12-05T17:30:40.544Z,8.67
2022-12-05T17:33:11.040Z,6.60
2022-12-05T17:35:40.693Z,8.53
2022-12-05T17:38:08.626Z,11.47
2022-12-05T17:40:36.592Z,11.03
2022-12-05T17:43:04.699Z,9.03
2022-12-05T17:45:33.176Z,11.83
2022-12-05T17:48:01.388Z,13.50
2022-12-05T17:50:29.862Z,16.77
2022-12-05T17:53:04.224Z,18.70
2022-12-05T17:55:34.837Z,20.00
2022-12-05T17:58:02.491Z,25.13
2022-12-05T18:00:30.288Z,24.13
2022-12-05T18:02:58.359Z,24.63
2022-12-05T18:05:26.094Z,22.17
2022-12-05T18:07:53.815Z,28.60
2022-12-05T18:10:23.742Z,19.30
2022-12-05T18:12:52.085Z,11.70
2022-12-05T18:15:28.313Z,19.47
2022-12-05T18:17:56.094Z,9.03
2022-12-05T18:20:23.719Z,6.50
2022-12-05T18:22:51.685Z,6.17
2022-12-05T18:25:19.423Z,6.07
2022-12-05T18:27:48.650Z,6.33
2022-12-05T18:30:16.421Z,5.17
2022-12-05T18:32:44.383Z,6.00
2022-12-05T18:35:13.229Z,5.60
2022-12-05T18:37:41.154Z,5.33
2022-12-05T18:40:10.917Z,6.17
2022-12-05T18:42:38.553Z,5.63
2022-12-05T18:45:09.243Z,5.73
2022-12-05T18:47:37.148Z,5.53
2022-12-05T18:50:05.280Z,5.03
2022-12-05T18:52:33.020Z,7.97
2022-12-05T18:55:16.333Z,5.20
2022-12-05T18:57:45.424Z,5.60
2022-12-05T19:00:16.071Z,5.27
2022-12-05T19:02:43.834Z,5.70
2022-12-05T19:05:11.527Z,5.93
2022-12-05T19:07:39.223Z,4.87
2022-12-05T19:10:08.424Z,5.20
2022-12-05T19:12:37.526Z,8.37
2022-12-05T19:15:06.231Z,12.93
2022-12-05T19:17:35.511Z,15.90
2022-12-05T19:20:03.244Z,8.80
2022-12-05T19:22:31.359Z,6.53
2022-12-05T19:24:59.676Z,6.93
2022-12-05T19:27:27.495Z,7.63
2022-12-05T19:29:55.424Z,7.10
2022-12-05T19:32:23.288Z,8.80
2022-12-05T19:34:52.375Z,7.23
2022-12-05T19:37:20.287Z,14.53
2022-12-05T19:39:49.662Z,9.30
2022-12-05T19:42:17.383Z,6.67
2022-12-05T19:44:45.933Z,6.40
2022-12-05T19:47:13.527Z,5.60
2022-12-05T19:49:41.278Z,6.27
2022-12-05T19:52:10.352Z,7.00
2022-12-05T19:54:39.355Z,6.87
2022-12-05T19:57:07.012Z,6.83
2022-12-05T19:59:34.670Z,7.57
2022-12-05T20:02:02.468Z,7.53
2022-12-05T20:04:30.303Z,7.07
2022-12-05T20:06:58.029Z,7.13
2022-12-05T20:09:27.959Z,6.83
2022-12-05T20:11:56.197Z,9.20
2022-12-05T20:14:25.137Z,8.27
2022-12-05T20:16:53.127Z,9.67
2022-12-05T20:19:21.323Z,7.57
2022-12-05T20:21:48.904Z,7.77
2022-12-05T20:24:16.670Z,8.27
2022-12-05T20:26:46.023Z,7.60
2022-12-05T20:29:13.944Z,8.10
2022-12-05T20:31:43.096Z,8.73
2022-12-05T20:34:13.258Z,7.43
2022-12-05T20:36:41.019Z,7.93
2022-12-05T20:39:11.169Z,6.37
2022-12-05T20:41:38.982Z,6.30
2022-12-05T20:44:08.810Z,6.47
2022-12-05T20:46:36.892Z,7.13
2022-12-05T20:49:04.818Z,7.17
2022-12-05T20:51:34.272Z,6.90
2022-12-05T20:54:03.604Z,6.33
2022-12-05T20:56:33.605Z,8.30
2022-12-05T20:59:03.202Z,8.37
2022-12-05T21:01:33.908Z,7.57
2022-12-05T21:04:02.673Z,7.33
2022-12-05T21:06:32.739Z,6.50
2022-12-05T21:09:01.724Z,7.23
2022-12-05T21:11:30.914Z,6.33
2022-12-05T21:14:00.677Z,6.73
2022-12-05T21:16:28.984Z,6.73
2022-12-05T21:19:00.692Z,6.90
2022-12-05T21:21:29.710Z,7.47
2022-12-05T21:23:59.277Z,6.63
2022-12-05T21:26:28.029Z,9.47
2022-12-05T21:28:56.359Z,6.70
2022-12-05T21:31:26.161Z,9.00
2022-12-05T21:33:55.623Z,6.67
2022-12-05T21:36:25.458Z,7.63
2022-12-05T21:38:56.184Z,6.97
2022-12-05T21:41:24.778Z,6.93
2022-12-05T21:43:55.259Z,7.03
2022-12-05T21:46:23.627Z,7.23
2022-12-05T21:48:51.399Z,8.67
2022-12-05T21:51:19.320Z,7.33
2022-12-05T21:53:48.513Z,8.57
2022-12-05T21:56:18.421Z,6.50
2022-12-05T21:58:47.188Z,5.57
2022-12-05T22:01:18.235Z,6.53
2022-12-05T22:03:46.324Z,5.77
2022-12-05T22:06:15.618Z,5.83
2022-12-05T22:08:43.826Z,5.87
2022-12-05T22:11:14.587Z,5.60
2022-12-05T22:13:42.367Z,7.00
2022-12-05T22:16:10.334Z,4.57
2022-12-05T22:18:38.573Z,4.70
2022-12-05T22:21:08.691Z,5.03
2022-12-05T22:23:36.897Z,5.20
2022-12-05T22:26:06.151Z,4.50
2022-12-05T22:28:35.993Z,4.87
2022-12-05T22:31:05.525Z,4.50
2022-12-05T22:33:35.702Z,6.27
2022-12-05T22:36:04.915Z,6.53
2022-12-05T22:38:34.925Z,4.10
2022-12-05T22:41:04.078Z,5.17
2022-12-05T22:43:33.139Z,6.13
2022-12-05T22:46:06.165Z,5.27
2022-12-05T22:48:34.481Z,3.73
2022-12-05T22:51:03.761Z,5.03
2022-12-05T22:53:31.802Z,3.30
2022-12-05T22:56:03.374Z,4.20
2022-12-05T22:58:31.120Z,3.97
2022-12-05T23:00:58.791Z,3.90
2022-12-05T23:03:27.865Z,3.13
2022-12-05T23:05:55.494Z,3.87
2022-12-05T23:08:23.168Z,4.03
2022-12-05T23:10:50.851Z,2.50
2022-12-05T23:13:18.494Z,3.23
2022-12-05T23:15:46.411Z,3.20
2022-12-05T23:18:14.550Z,2.13
2022-12-05T23:20:43.699Z,1.43
2022-12-05T23:23:11.345Z,3.27
2022-12-05T23:25:38.960Z,2.37
2022-12-05T23:28:06.935Z,1.93
2022-12-05T23:30:34.510Z,3.67
2022-12-05T23:33:02.180Z,1.73
2022-12-05T23:35:29.770Z,2.07
2022-12-05T23:37:58.727Z,1.70
2022-12-05T23:40:26.366Z,3.40
2022-12-05T23:42:54.024Z,2.13
2022-12-05T23:45:21.641Z,1.60
2022-12-05T23:47:49.228Z,2.13
2022-12-05T23:50:17.064Z,1.83
2022-12-05T23:52:44.714Z,2.07
2022-12-05T23:55:13.827Z,2.20
2022-12-05T23:57:41.485Z,1.93
